sensor_id;sensor_type;location;lat;lon;timestamp;P1;durP1;ratioP1;P2;durP2;ratioP2
7971;SDS011;4031;49.758;6.120;2023-08-07T00:00:46;3.80;;;2.10;;
7971;SDS011;4031;49.758;6.120;2023-08-07T00:03:11;2.70;;;2.00;;
7971;SDS011;4031;49.758;6.120;2023-08-07T00:05:44;2.87;;;1.80;;
7971;SDS011;4031;49.758;6.120;2023-08-07T00:08:11;3.43;;;1.70;;
7971;SDS011;4031;49.758;6.120;2023-08-07T00:10:37;3.00;;;2.07;;
7971;SDS011;4031;49.758;6.120;2023-08-07T00:13:02;6.17;;;1.80;;
7971;SDS011;4031;49.758;6.120;2023-08-07T00:15:28;2.63;;;1.57;;
7971;SDS011;4031;49.758;6.120;2023-08-07T00:17:54;2.27;;;1.87;;
7971;SDS011;4031;49.758;6.120;2023-08-07T00:20:20;6.17;;;2.00;;
7971;SDS011;4031;49.758;6.120;2023-08-07T00:22:46;4.40;;;2.33;;
7971;SDS011;4031;49.758;6.120;2023-08-07T00:25:12;6.87;;;1.77;;
7971;SDS011;4031;49.758;6.120;2023-08-07T00:27:37;4.10;;;2.30;;
7971;SDS011;4031;49.758;6.120;2023-08-07T00:30:03;5.97;;;2.40;;
7971;SDS011;4031;49.758;6.120;2023-08-07T00:32:29;7.70;;;2.23;;
7971;SDS011;4031;49.758;6.120;2023-08-07T00:34:55;6.20;;;2.20;;
7971;SDS011;4031;49.758;6.120;2023-08-07T00:37:21;6.33;;;2.10;;
7971;SDS011;4031;49.758;6.120;2023-08-07T00:39:47;2.93;;;1.87;;
7971;SDS011;4031;49.758;6.120;2023-08-07T00:42:12;3.77;;;1.43;;
7971;SDS011;4031;49.758;6.120;2023-08-07T00:44:38;5.67;;;1.80;;
7971;SDS011;4031;49.758;6.120;2023-08-07T00:47:04;7.17;;;1.90;;
7971;SDS011;4031;49.758;6.120;2023-08-07T00:49:30;2.70;;;1.93;;
7971;SDS011;4031;49.758;6.120;2023-08-07T00:51:56;3.13;;;2.13;;
7971;SDS011;4031;49.758;6.120;2023-08-07T00:54:22;6.60;;;2.87;;
7971;SDS011;4031;49.758;6.120;2023-08-07T00:56:48;1.97;;;1.87;;
7971;SDS011;4031;49.758;6.120;2023-08-07T00:59:14;7.40;;;2.27;;
7971;SDS011;4031;49.758;6.120;2023-08-07T01:01:40;6.33;;;2.10;;
7971;SDS011;4031;49.758;6.120;2023-08-07T01:04:06;7.90;;;1.80;;
7971;SDS011;4031;49.758;6.120;2023-08-07T01:06:32;3.10;;;2.40;;
7971;SDS011;4031;49.758;6.120;2023-08-07T01:08:58;6.37;;;2.17;;
7971;SDS011;4031;49.758;6.120;2023-08-07T01:11:27;6.37;;;2.20;;
7971;SDS011;4031;49.758;6.120;2023-08-07T01:17:07;3.10;;;2.27;;
7971;SDS011;4031;49.758;6.120;2023-08-07T01:19:40;5.43;;;2.30;;
7971;SDS011;4031;49.758;6.120;2023-08-07T01:22:10;4.50;;;2.40;;
7971;SDS011;4031;49.758;6.120;2023-08-07T01:24:39;3.43;;;2.20;;
7971;SDS011;4031;49.758;6.120;2023-08-07T01:29:52;8.43;;;2.50;;
7971;SDS011;4031;49.758;6.120;2023-08-07T01:33:14;2.63;;;2.10;;
7971;SDS011;4031;49.758;6.120;2023-08-07T01:35:58;4.00;;;2.30;;
7971;SDS011;4031;49.758;6.120;2023-08-07T01:38:31;5.00;;;2.03;;
7971;SDS011;4031;49.758;6.120;2023-08-07T01:40:58;6.63;;;2.90;;
7971;SDS011;4031;49.758;6.120;2023-08-07T01:43:26;2.20;;;2.00;;
7971;SDS011;4031;49.758;6.120;2023-08-07T01:45:52;6.33;;;2.20;;
7971;SDS011;4031;49.758;6.120;2023-08-07T01:48:18;3.30;;;2.40;;
7971;SDS011;4031;49.758;6.120;2023-08-07T01:50:43;3.00;;;1.40;;
7971;SDS011;4031;49.758;6.120;2023-08-07T01:53:09;3.00;;;1.73;;
7971;SDS011;4031;49.758;6.120;2023-08-07T01:55:35;3.60;;;2.80;;
7971;SDS011;4031;49.758;6.120;2023-08-07T01:58:01;2.83;;;2.30;;
7971;SDS011;4031;49.758;6.120;2023-08-07T02:00:27;2.23;;;2.03;;
7971;SDS011;4031;49.758;6.120;2023-08-07T02:02:53;2.07;;;1.90;;
7971;SDS011;4031;49.758;6.120;2023-08-07T02:05:19;9.83;;;2.33;;
7971;SDS011;4031;49.758;6.120;2023-08-07T02:07:44;2.23;;;1.73;;
7971;SDS011;4031;49.758;6.120;2023-08-07T02:10:10;2.60;;;1.80;;
7971;SDS011;4031;49.758;6.120;2023-08-07T02:12:36;4.77;;;2.00;;
7971;SDS011;4031;49.758;6.120;2023-08-07T02:15:02;7.70;;;2.30;;
7971;SDS011;4031;49.758;6.120;2023-08-07T02:17:28;3.60;;;1.67;;
7971;SDS011;4031;49.758;6.120;2023-08-07T02:19:57;2.50;;;2.17;;
7971;SDS011;4031;49.758;6.120;2023-08-07T02:22:24;5.93;;;2.20;;
7971;SDS011;4031;49.758;6.120;2023-08-07T02:24:50;5.43;;;2.40;;
7971;SDS011;4031;49.758;6.120;2023-08-07T02:27:16;6.43;;;2.20;;
7971;SDS011;4031;49.758;6.120;2023-08-07T02:29:41;8.03;;;2.53;;
7971;SDS011;4031;49.758;6.120;2023-08-07T02:32:09;3.50;;;1.90;;
7971;SDS011;4031;49.758;6.120;2023-08-07T02:34:34;3.97;;;1.93;;
7971;SDS011;4031;49.758;6.120;2023-08-07T02:37:00;3.97;;;2.37;;
7971;SDS011;4031;49.758;6.120;2023-08-07T02:39:26;4.37;;;2.70;;
7971;SDS011;4031;49.758;6.120;2023-08-07T02:41:51;3.40;;;2.40;;
7971;SDS011;4031;49.758;6.120;2023-08-07T02:44:17;5.03;;;2.50;;
7971;SDS011;4031;49.758;6.120;2023-08-07T02:46:44;4.37;;;2.37;;
7971;SDS011;4031;49.758;6.120;2023-08-07T02:49:10;2.50;;;2.30;;
7971;SDS011;4031;49.758;6.120;2023-08-07T02:51:36;4.70;;;2.47;;
7971;SDS011;4031;49.758;6.120;2023-08-07T02:54:02;4.83;;;2.10;;
7971;SDS011;4031;49.758;6.120;2023-08-07T02:56:27;2.20;;;1.73;;
7971;SDS011;4031;49.758;6.120;2023-08-07T02:58:53;18.60;;;2.87;;
7971;SDS011;4031;49.758;6.120;2023-08-07T03:01:19;4.70;;;2.43;;
7971;SDS011;4031;49.758;6.120;2023-08-07T03:03:46;4.80;;;2.00;;
7971;SDS011;4031;49.758;6.120;2023-08-07T03:06:12;8.10;;;2.20;;
7971;SDS011;4031;49.758;6.120;2023-08-07T03:08:37;9.60;;;2.43;;
7971;SDS011;4031;49.758;6.120;2023-08-07T03:11:03;4.20;;;2.33;;
7971;SDS011;4031;49.758;6.120;2023-08-07T03:13:29;3.17;;;2.30;;
7971;SDS011;4031;49.758;6.120;2023-08-07T03:15:58;3.63;;;2.07;;
7971;SDS011;4031;49.758;6.120;2023-08-07T03:18:25;3.13;;;2.30;;
7971;SDS011;4031;49.758;6.120;2023-08-07T03:20:52;5.40;;;2.10;;
7971;SDS011;4031;49.758;6.120;2023-08-07T03:23:19;5.63;;;2.60;;
7971;SDS011;4031;49.758;6.120;2023-08-07T03:25:44;3.73;;;1.80;;
7971;SDS011;4031;49.758;6.120;2023-08-07T03:28:10;4.50;;;2.20;;
7971;SDS011;4031;49.758;6.120;2023-08-07T03:30:36;4.27;;;2.23;;
7971;SDS011;4031;49.758;6.120;2023-08-07T03:33:03;3.87;;;2.30;;
7971;SDS011;4031;49.758;6.120;2023-08-07T03:35:29;3.23;;;2.10;;
7971;SDS011;4031;49.758;6.120;2023-08-07T03:37:55;3.80;;;2.80;;
7971;SDS011;4031;49.758;6.120;2023-08-07T03:40:20;3.27;;;2.23;;
7971;SDS011;4031;49.758;6.120;2023-08-07T03:42:46;5.47;;;2.70;;
7971;SDS011;4031;49.758;6.120;2023-08-07T03:45:12;4.40;;;2.40;;
7971;SDS011;4031;49.758;6.120;2023-08-07T03:47:38;3.00;;;2.70;;
7971;SDS011;4031;49.758;6.120;2023-08-07T03:50:04;4.53;;;2.50;;
7971;SDS011;4031;49.758;6.120;2023-08-07T03:52:30;3.33;;;2.30;;
7971;SDS011;4031;49.758;6.120;2023-08-07T03:54:56;3.73;;;2.23;;
7971;SDS011;4031;49.758;6.120;2023-08-07T03:57:23;4.40;;;2.07;;
7971;SDS011;4031;49.758;6.120;2023-08-07T03:59:49;4.43;;;2.23;;
7971;SDS011;4031;49.758;6.120;2023-08-07T04:02:14;3.73;;;2.20;;
7971;SDS011;4031;49.758;6.120;2023-08-07T04:04:40;7.20;;;2.53;;
7971;SDS011;4031;49.758;6.120;2023-08-07T04:07:06;13.20;;;3.33;;
7971;SDS011;4031;49.758;6.120;2023-08-07T04:09:32;2.93;;;2.20;;
7971;SDS011;4031;49.758;6.120;2023-08-07T04:11:58;5.63;;;2.87;;
7971;SDS011;4031;49.758;6.120;2023-08-07T04:14:24;4.30;;;2.70;;
7971;SDS011;4031;49.758;6.120;2023-08-07T04:16:49;5.30;;;2.73;;
7971;SDS011;4031;49.758;6.120;2023-08-07T04:19:15;4.87;;;2.70;;
7971;SDS011;4031;49.758;6.120;2023-08-07T04:21:41;10.57;;;2.83;;
7971;SDS011;4031;49.758;6.120;2023-08-07T04:24:07;4.70;;;2.93;;
7971;SDS011;4031;49.758;6.120;2023-08-07T04:26:35;4.70;;;2.87;;
7971;SDS011;4031;49.758;6.120;2023-08-07T04:29:02;7.37;;;3.20;;
7971;SDS011;4031;49.758;6.120;2023-08-07T04:31:28;3.53;;;2.80;;
7971;SDS011;4031;49.758;6.120;2023-08-07T04:33:57;6.90;;;3.27;;
7971;SDS011;4031;49.758;6.120;2023-08-07T04:36:23;5.73;;;2.73;;
7971;SDS011;4031;49.758;6.120;2023-08-07T04:38:49;8.30;;;3.40;;
7971;SDS011;4031;49.758;6.120;2023-08-07T04:41:15;4.27;;;2.70;;
7971;SDS011;4031;49.758;6.120;2023-08-07T04:43:41;4.70;;;2.10;;
7971;SDS011;4031;49.758;6.120;2023-08-07T04:46:08;5.77;;;2.60;;
7971;SDS011;4031;49.758;6.120;2023-08-07T04:48:34;5.10;;;2.40;;
7971;SDS011;4031;49.758;6.120;2023-08-07T04:51:01;4.17;;;2.50;;
7971;SDS011;4031;49.758;6.120;2023-08-07T04:53:27;5.37;;;3.00;;
7971;SDS011;4031;49.758;6.120;2023-08-07T04:55:53;2.87;;;2.67;;
7971;SDS011;4031;49.758;6.120;2023-08-07T04:58:18;4.20;;;2.40;;
7971;SDS011;4031;49.758;6.120;2023-08-07T05:00:44;3.43;;;2.33;;
7971;SDS011;4031;49.758;6.120;2023-08-07T05:03:10;4.00;;;2.20;;
7971;SDS011;4031;49.758;6.120;2023-08-07T05:05:36;5.33;;;1.87;;
7971;SDS011;4031;49.758;6.120;2023-08-07T05:08:01;4.10;;;2.33;;
7971;SDS011;4031;49.758;6.120;2023-08-07T05:10:27;3.17;;;2.87;;
7971;SDS011;4031;49.758;6.120;2023-08-07T05:12:53;4.40;;;2.40;;
7971;SDS011;4031;49.758;6.120;2023-08-07T05:15:22;6.97;;;2.87;;
7971;SDS011;4031;49.758;6.120;2023-08-07T05:17:49;5.33;;;2.87;;
7971;SDS011;4031;49.758;6.120;2023-08-07T05:20:16;4.60;;;2.43;;
7971;SDS011;4031;49.758;6.120;2023-08-07T05:22:42;3.27;;;2.33;;
7971;SDS011;4031;49.758;6.120;2023-08-07T05:25:08;5.63;;;2.60;;
7971;SDS011;4031;49.758;6.120;2023-08-07T05:27:34;3.50;;;2.60;;
7971;SDS011;4031;49.758;6.120;2023-08-07T05:30:00;3.30;;;2.30;;
7971;SDS011;4031;49.758;6.120;2023-08-07T05:32:26;5.80;;;2.57;;
7971;SDS011;4031;49.758;6.120;2023-08-07T05:34:53;3.30;;;2.57;;
7971;SDS011;4031;49.758;6.120;2023-08-07T05:37:19;3.47;;;1.53;;
7971;SDS011;4031;49.758;6.120;2023-08-07T05:39:44;3.47;;;1.93;;
7971;SDS011;4031;49.758;6.120;2023-08-07T05:42:10;5.10;;;2.70;;
7971;SDS011;4031;49.758;6.120;2023-08-07T05:44:37;9.07;;;2.30;;
7971;SDS011;4031;49.758;6.120;2023-08-07T05:47:03;3.73;;;2.37;;
7971;SDS011;4031;49.758;6.120;2023-08-07T05:49:29;6.20;;;2.30;;
7971;SDS011;4031;49.758;6.120;2023-08-07T05:51:56;1.43;;;1.33;;
7971;SDS011;4031;49.758;6.120;2023-08-07T05:54:22;5.50;;;2.50;;
7971;SDS011;4031;49.758;6.120;2023-08-07T05:56:47;5.27;;;2.57;;
7971;SDS011;4031;49.758;6.120;2023-08-07T05:59:13;2.20;;;1.90;;
7971;SDS011;4031;49.758;6.120;2023-08-07T06:01:40;2.90;;;1.80;;
7971;SDS011;4031;49.758;6.120;2023-08-07T06:04:06;2.20;;;1.90;;
7971;SDS011;4031;49.758;6.120;2023-08-07T06:06:32;2.47;;;2.27;;
7971;SDS011;4031;49.758;6.120;2023-08-07T06:09:00;3.13;;;1.93;;
7971;SDS011;4031;49.758;6.120;2023-08-07T06:11:27;3.00;;;2.07;;
7971;SDS011;4031;49.758;6.120;2023-08-07T06:13:53;2.63;;;1.93;;
7971;SDS011;4031;49.758;6.120;2023-08-07T06:16:18;3.93;;;1.77;;
7971;SDS011;4031;49.758;6.120;2023-08-07T06:18:44;5.70;;;1.53;;
7971;SDS011;4031;49.758;6.120;2023-08-07T06:21:10;2.27;;;1.17;;
7971;SDS011;4031;49.758;6.120;2023-08-07T06:23:36;2.87;;;1.97;;
7971;SDS011;4031;49.758;6.120;2023-08-07T06:26:02;2.87;;;1.70;;
7971;SDS011;4031;49.758;6.120;2023-08-07T06:28:29;1.90;;;1.20;;
7971;SDS011;4031;49.758;6.120;2023-08-07T06:31:04;4.30;;;1.77;;
7971;SDS011;4031;49.758;6.120;2023-08-07T06:33:32;1.83;;;1.73;;
7971;SDS011;4031;49.758;6.120;2023-08-07T06:36:01;1.67;;;1.17;;
7971;SDS011;4031;49.758;6.120;2023-08-07T06:38:28;2.03;;;1.30;;
7971;SDS011;4031;49.758;6.120;2023-08-07T06:40:54;1.27;;;1.17;;
7971;SDS011;4031;49.758;6.120;2023-08-07T06:43:20;1.30;;;1.20;;
7971;SDS011;4031;49.758;6.120;2023-08-07T06:45:46;2.30;;;1.40;;
7971;SDS011;4031;49.758;6.120;2023-08-07T06:48:14;1.63;;;1.30;;
7971;SDS011;4031;49.758;6.120;2023-08-07T06:50:40;1.93;;;1.27;;
7971;SDS011;4031;49.758;6.120;2023-08-07T06:53:06;2.00;;;1.13;;
7971;SDS011;4031;49.758;6.120;2023-08-07T06:55:31;1.80;;;1.30;;
7971;SDS011;4031;49.758;6.120;2023-08-07T06:57:58;1.20;;;0.83;;
7971;SDS011;4031;49.758;6.120;2023-08-07T07:00:24;1.30;;;1.00;;
7971;SDS011;4031;49.758;6.120;2023-08-07T07:02:50;4.33;;;1.20;;
7971;SDS011;4031;49.758;6.120;2023-08-07T07:05:16;2.50;;;1.80;;
7971;SDS011;4031;49.758;6.120;2023-08-07T07:07:42;1.10;;;0.97;;
7971;SDS011;4031;49.758;6.120;2023-08-07T07:10:08;3.63;;;1.17;;
7971;SDS011;4031;49.758;6.120;2023-08-07T07:12:34;1.63;;;1.20;;
7971;SDS011;4031;49.758;6.120;2023-08-07T07:14:59;1.87;;;1.47;;
7971;SDS011;4031;49.758;6.120;2023-08-07T07:17:25;2.83;;;1.33;;
7971;SDS011;4031;49.758;6.120;2023-08-07T07:19:51;2.97;;;1.30;;
7971;SDS011;4031;49.758;6.120;2023-08-07T07:22:16;2.03;;;1.17;;
7971;SDS011;4031;49.758;6.120;2023-08-07T07:24:42;1.00;;;0.90;;
7971;SDS011;4031;49.758;6.120;2023-08-07T07:27:08;2.23;;;1.10;;
7971;SDS011;4031;49.758;6.120;2023-08-07T07:29:33;1.43;;;1.03;;
7971;SDS011;4031;49.758;6.120;2023-08-07T07:31:59;3.00;;;1.00;;
7971;SDS011;4031;49.758;6.120;2023-08-07T07:34:25;0.93;;;0.93;;
7971;SDS011;4031;49.758;6.120;2023-08-07T07:36:50;1.77;;;1.67;;
7971;SDS011;4031;49.758;6.120;2023-08-07T07:39:18;1.00;;;0.90;;
7971;SDS011;4031;49.758;6.120;2023-08-07T07:41:44;1.20;;;0.90;;
7971;SDS011;4031;49.758;6.120;2023-08-07T07:44:10;2.77;;;1.63;;
7971;SDS011;4031;49.758;6.120;2023-08-07T07:46:35;3.33;;;1.67;;
7971;SDS011;4031;49.758;6.120;2023-08-07T07:49:01;1.30;;;1.20;;
7971;SDS011;4031;49.758;6.120;2023-08-07T07:51:28;1.50;;;1.30;;
7971;SDS011;4031;49.758;6.120;2023-08-07T07:53:54;2.53;;;1.53;;
7971;SDS011;4031;49.758;6.120;2023-08-07T07:56:20;2.67;;;1.40;;
7971;SDS011;4031;49.758;6.120;2023-08-07T07:58:45;1.80;;;1.07;;
7971;SDS011;4031;49.758;6.120;2023-08-07T08:01:11;1.73;;;0.93;;
7971;SDS011;4031;49.758;6.120;2023-08-07T08:03:37;2.50;;;1.33;;
7971;SDS011;4031;49.758;6.120;2023-08-07T08:06:02;4.00;;;1.77;;
7971;SDS011;4031;49.758;6.120;2023-08-07T08:08:28;4.33;;;2.30;;
7971;SDS011;4031;49.758;6.120;2023-08-07T08:10:54;2.40;;;1.07;;
7971;SDS011;4031;49.758;6.120;2023-08-07T08:13:19;1.83;;;1.10;;
7971;SDS011;4031;49.758;6.120;2023-08-07T08:15:45;1.63;;;1.20;;
7971;SDS011;4031;49.758;6.120;2023-08-07T08:18:11;1.50;;;0.90;;
7971;SDS011;4031;49.758;6.120;2023-08-07T08:20:37;1.80;;;1.30;;
7971;SDS011;4031;49.758;6.120;2023-08-07T08:23:04;1.57;;;1.27;;
7971;SDS011;4031;49.758;6.120;2023-08-07T08:25:30;1.20;;;0.93;;
7971;SDS011;4031;49.758;6.120;2023-08-07T08:28:00;2.70;;;1.43;;
7971;SDS011;4031;49.758;6.120;2023-08-07T08:30:26;1.40;;;1.30;;
7971;SDS011;4031;49.758;6.120;2023-08-07T08:32:53;1.40;;;1.17;;
7971;SDS011;4031;49.758;6.120;2023-08-07T08:35:18;1.97;;;1.17;;
7971;SDS011;4031;49.758;6.120;2023-08-07T08:37:44;1.00;;;0.80;;
7971;SDS011;4031;49.758;6.120;2023-08-07T08:40:11;2.23;;;1.37;;
7971;SDS011;4031;49.758;6.120;2023-08-07T08:42:39;1.07;;;0.97;;
7971;SDS011;4031;49.758;6.120;2023-08-07T08:45:05;1.10;;;0.80;;
7971;SDS011;4031;49.758;6.120;2023-08-07T08:47:37;1.57;;;1.03;;
7971;SDS011;4031;49.758;6.120;2023-08-07T08:50:06;1.70;;;1.03;;
7971;SDS011;4031;49.758;6.120;2023-08-07T08:52:36;1.80;;;1.30;;
7971;SDS011;4031;49.758;6.120;2023-08-07T08:55:03;1.00;;;0.90;;
7971;SDS011;4031;49.758;6.120;2023-08-07T08:57:31;0.90;;;0.77;;
7971;SDS011;4031;49.758;6.120;2023-08-07T08:59:59;1.60;;;1.00;;
7971;SDS011;4031;49.758;6.120;2023-08-07T09:02:25;1.13;;;1.00;;
7971;SDS011;4031;49.758;6.120;2023-08-07T09:04:52;1.50;;;0.90;;
7971;SDS011;4031;49.758;6.120;2023-08-07T09:07:18;2.00;;;1.13;;
7971;SDS011;4031;49.758;6.120;2023-08-07T09:09:45;1.23;;;1.03;;
7971;SDS011;4031;49.758;6.120;2023-08-07T09:12:16;1.23;;;1.13;;
7971;SDS011;4031;49.758;6.120;2023-08-07T09:14:47;2.10;;;1.10;;
7971;SDS011;4031;49.758;6.120;2023-08-07T09:17:20;1.47;;;1.10;;
7971;SDS011;4031;49.758;6.120;2023-08-07T09:19:50;1.30;;;1.03;;
7971;SDS011;4031;49.758;6.120;2023-08-07T09:22:18;2.00;;;1.20;;
7971;SDS011;4031;49.758;6.120;2023-08-07T09:24:44;1.20;;;1.10;;
7971;SDS011;4031;49.758;6.120;2023-08-07T09:27:11;1.23;;;0.97;;
7971;SDS011;4031;49.758;6.120;2023-08-07T09:29:39;1.40;;;1.23;;
7971;SDS011;4031;49.758;6.120;2023-08-07T09:32:06;1.77;;;1.10;;
7971;SDS011;4031;49.758;6.120;2023-08-07T09:34:42;1.47;;;0.97;;
7971;SDS011;4031;49.758;6.120;2023-08-07T09:37:10;1.90;;;0.97;;
7971;SDS011;4031;49.758;6.120;2023-08-07T09:39:36;0.70;;;0.70;;
7971;SDS011;4031;49.758;6.120;2023-08-07T09:42:24;1.20;;;1.00;;
7971;SDS011;4031;49.758;6.120;2023-08-07T09:44:48;2.30;;;1.13;;
7971;SDS011;4031;49.758;6.120;2023-08-07T09:47:16;1.03;;;0.90;;
7971;SDS011;4031;49.758;6.120;2023-08-07T09:49:43;1.20;;;1.00;;
7971;SDS011;4031;49.758;6.120;2023-08-07T09:52:11;4.83;;;1.97;;
7971;SDS011;4031;49.758;6.120;2023-08-07T09:54:39;1.23;;;1.03;;
7971;SDS011;4031;49.758;6.120;2023-08-07T09:57:05;1.20;;;1.03;;
7971;SDS011;4031;49.758;6.120;2023-08-07T09:59:32;1.23;;;0.83;;
7971;SDS011;4031;49.758;6.120;2023-08-07T10:01:59;1.30;;;0.90;;
7971;SDS011;4031;49.758;6.120;2023-08-07T10:04:30;3.40;;;1.10;;
7971;SDS011;4031;49.758;6.120;2023-08-07T10:06:57;1.20;;;1.03;;
7971;SDS011;4031;49.758;6.120;2023-08-07T10:09:23;2.13;;;1.20;;
7971;SDS011;4031;49.758;6.120;2023-08-07T10:11:49;2.50;;;0.93;;
7971;SDS011;4031;49.758;6.120;2023-08-07T10:14:16;1.53;;;1.43;;
7971;SDS011;4031;49.758;6.120;2023-08-07T10:16:43;1.10;;;1.00;;
7971;SDS011;4031;49.758;6.120;2023-08-07T10:19:10;1.70;;;1.10;;
7971;SDS011;4031;49.758;6.120;2023-08-07T10:21:38;1.63;;;1.10;;
7971;SDS011;4031;49.758;6.120;2023-08-07T10:24:05;1.10;;;0.90;;
7971;SDS011;4031;49.758;6.120;2023-08-07T10:26:33;1.53;;;1.20;;
7971;SDS011;4031;49.758;6.120;2023-08-07T10:29:03;0.97;;;0.83;;
7971;SDS011;4031;49.758;6.120;2023-08-07T10:31:31;1.00;;;0.87;;
7971;SDS011;4031;49.758;6.120;2023-08-07T10:34:00;1.63;;;1.00;;
7971;SDS011;4031;49.758;6.120;2023-08-07T10:36:32;2.03;;;1.10;;
7971;SDS011;4031;49.758;6.120;2023-08-07T10:39:06;1.43;;;1.33;;
7971;SDS011;4031;49.758;6.120;2023-08-07T10:41:46;1.27;;;1.03;;
7971;SDS011;4031;49.758;6.120;2023-08-07T10:46:48;2.00;;;1.10;;
7971;SDS011;4031;49.758;6.120;2023-08-07T10:49:39;0.80;;;0.73;;
7971;SDS011;4031;49.758;6.120;2023-08-07T10:52:13;1.70;;;1.60;;
7971;SDS011;4031;49.758;6.120;2023-08-07T10:57:15;0.90;;;0.90;;
7971;SDS011;4031;49.758;6.120;2023-08-07T11:00:16;1.80;;;1.40;;
7971;SDS011;4031;49.758;6.120;2023-08-07T11:02:37;2.90;;;1.50;;
7971;SDS011;4031;49.758;6.120;2023-08-07T11:05:06;1.30;;;1.20;;
7971;SDS011;4031;49.758;6.120;2023-08-07T11:07:33;3.03;;;1.20;;
7971;SDS011;4031;49.758;6.120;2023-08-07T11:09:59;0.90;;;0.90;;
7971;SDS011;4031;49.758;6.120;2023-08-07T11:12:25;1.20;;;1.10;;
7971;SDS011;4031;49.758;6.120;2023-08-07T11:14:53;1.63;;;1.23;;
7971;SDS011;4031;49.758;6.120;2023-08-07T11:17:26;1.67;;;1.00;;
7971;SDS011;4031;49.758;6.120;2023-08-07T11:19:53;0.93;;;0.70;;
7971;SDS011;4031;49.758;6.120;2023-08-07T11:22:20;1.37;;;1.00;;
7971;SDS011;4031;49.758;6.120;2023-08-07T11:24:46;1.87;;;1.00;;
7971;SDS011;4031;49.758;6.120;2023-08-07T11:27:12;1.07;;;0.97;;
7971;SDS011;4031;49.758;6.120;2023-08-07T11:29:37;1.80;;;0.90;;
7971;SDS011;4031;49.758;6.120;2023-08-07T11:32:03;1.17;;;1.10;;
7971;SDS011;4031;49.758;6.120;2023-08-07T11:34:30;0.90;;;0.80;;
7971;SDS011;4031;49.758;6.120;2023-08-07T11:36:56;0.93;;;0.73;;
7971;SDS011;4031;49.758;6.120;2023-08-07T11:39:23;1.20;;;1.10;;
7971;SDS011;4031;49.758;6.120;2023-08-07T11:41:50;1.03;;;0.83;;
7971;SDS011;4031;49.758;6.120;2023-08-07T11:44:17;1.17;;;0.77;;
7971;SDS011;4031;49.758;6.120;2023-08-07T11:46:43;1.30;;;1.00;;
7971;SDS011;4031;49.758;6.120;2023-08-07T11:49:09;1.17;;;0.70;;
7971;SDS011;4031;49.758;6.120;2023-08-07T11:51:36;2.50;;;1.13;;
7971;SDS011;4031;49.758;6.120;2023-08-07T11:54:02;2.00;;;0.90;;
7971;SDS011;4031;49.758;6.120;2023-08-07T11:56:28;1.20;;;0.93;;
7971;SDS011;4031;49.758;6.120;2023-08-07T11:58:56;1.10;;;0.90;;
7971;SDS011;4031;49.758;6.120;2023-08-07T12:01:24;1.03;;;0.77;;
7971;SDS011;4031;49.758;6.120;2023-08-07T12:06:35;1.20;;;0.80;;
7971;SDS011;4031;49.758;6.120;2023-08-07T12:09:04;1.83;;;1.23;;
7971;SDS011;4031;49.758;6.120;2023-08-07T12:11:37;1.10;;;0.80;;
7971;SDS011;4031;49.758;6.120;2023-08-07T12:14:03;3.90;;;1.40;;
7971;SDS011;4031;49.758;6.120;2023-08-07T12:16:32;1.23;;;1.10;;
7971;SDS011;4031;49.758;6.120;2023-08-07T12:19:00;1.30;;;1.20;;
7971;SDS011;4031;49.758;6.120;2023-08-07T12:21:26;0.83;;;0.73;;
7971;SDS011;4031;49.758;6.120;2023-08-07T12:23:56;1.23;;;1.13;;
7971;SDS011;4031;49.758;6.120;2023-08-07T12:26:22;0.83;;;0.83;;
7971;SDS011;4031;49.758;6.120;2023-08-07T12:28:47;1.73;;;1.40;;
7971;SDS011;4031;49.758;6.120;2023-08-07T12:31:14;1.30;;;1.00;;
7971;SDS011;4031;49.758;6.120;2023-08-07T12:33:39;1.20;;;1.00;;
7971;SDS011;4031;49.758;6.120;2023-08-07T12:36:05;0.83;;;0.77;;
7971;SDS011;4031;49.758;6.120;2023-08-07T12:38:33;1.00;;;0.90;;
7971;SDS011;4031;49.758;6.120;2023-08-07T12:40:58;2.13;;;1.50;;
7971;SDS011;4031;49.758;6.120;2023-08-07T12:43:24;1.43;;;1.20;;
7971;SDS011;4031;49.758;6.120;2023-08-07T12:45:51;0.90;;;0.90;;
7971;SDS011;4031;49.758;6.120;2023-08-07T12:48:17;1.50;;;1.40;;
7971;SDS011;4031;49.758;6.120;2023-08-07T12:50:43;1.47;;;1.07;;
7971;SDS011;4031;49.758;6.120;2023-08-07T12:53:09;1.37;;;1.27;;
7971;SDS011;4031;49.758;6.120;2023-08-07T12:55:35;1.87;;;1.40;;
7971;SDS011;4031;49.758;6.120;2023-08-07T12:58:01;1.33;;;1.17;;
7971;SDS011;4031;49.758;6.120;2023-08-07T13:00:26;1.97;;;1.20;;
7971;SDS011;4031;49.758;6.120;2023-08-07T13:02:52;0.73;;;0.73;;
7971;SDS011;4031;49.758;6.120;2023-08-07T13:05:20;1.20;;;1.10;;
7971;SDS011;4031;49.758;6.120;2023-08-07T13:07:47;1.30;;;1.20;;
7971;SDS011;4031;49.758;6.120;2023-08-07T13:10:14;1.13;;;1.03;;
7971;SDS011;4031;49.758;6.120;2023-08-07T13:12:42;1.70;;;1.37;;
7971;SDS011;4031;49.758;6.120;2023-08-07T13:15:11;1.70;;;1.10;;
7971;SDS011;4031;49.758;6.120;2023-08-07T13:17:40;1.17;;;1.00;;
7971;SDS011;4031;49.758;6.120;2023-08-07T13:20:06;1.50;;;1.30;;
7971;SDS011;4031;49.758;6.120;2023-08-07T13:22:37;1.70;;;1.60;;
7971;SDS011;4031;49.758;6.120;2023-08-07T13:25:04;1.73;;;1.00;;
7971;SDS011;4031;49.758;6.120;2023-08-07T13:27:30;1.13;;;1.03;;
7971;SDS011;4031;49.758;6.120;2023-08-07T13:29:57;5.13;;;1.37;;
7971;SDS011;4031;49.758;6.120;2023-08-07T13:32:23;2.30;;;1.30;;
7971;SDS011;4031;49.758;6.120;2023-08-07T13:34:50;1.20;;;1.07;;
7971;SDS011;4031;49.758;6.120;2023-08-07T13:37:16;1.23;;;0.97;;
7971;SDS011;4031;49.758;6.120;2023-08-07T13:39:42;1.37;;;1.23;;
7971;SDS011;4031;49.758;6.120;2023-08-07T13:42:07;1.40;;;0.97;;
7971;SDS011;4031;49.758;6.120;2023-08-07T13:44:35;1.30;;;1.00;;
7971;SDS011;4031;49.758;6.120;2023-08-07T13:47:01;1.23;;;0.70;;
7971;SDS011;4031;49.758;6.120;2023-08-07T13:49:29;1.27;;;1.10;;
7971;SDS011;4031;49.758;6.120;2023-08-07T13:51:55;2.40;;;1.00;;
7971;SDS011;4031;49.758;6.120;2023-08-07T13:54:21;1.00;;;0.83;;
7971;SDS011;4031;49.758;6.120;2023-08-07T13:56:47;1.00;;;1.00;;
7971;SDS011;4031;49.758;6.120;2023-08-07T13:59:13;1.10;;;1.00;;
7971;SDS011;4031;49.758;6.120;2023-08-07T14:01:39;2.73;;;1.13;;
7971;SDS011;4031;49.758;6.120;2023-08-07T14:04:04;1.10;;;0.80;;
7971;SDS011;4031;49.758;6.120;2023-08-07T14:06:31;0.83;;;0.83;;
7971;SDS011;4031;49.758;6.120;2023-08-07T14:08:56;1.43;;;1.20;;
7971;SDS011;4031;49.758;6.120;2023-08-07T14:11:22;1.17;;;0.90;;
7971;SDS011;4031;49.758;6.120;2023-08-07T14:13:52;1.80;;;1.07;;
7971;SDS011;4031;49.758;6.120;2023-08-07T14:16:18;1.43;;;1.07;;
7971;SDS011;4031;49.758;6.120;2023-08-07T14:18:44;1.33;;;0.70;;
7971;SDS011;4031;49.758;6.120;2023-08-07T14:21:09;0.70;;;0.60;;
7971;SDS011;4031;49.758;6.120;2023-08-07T14:23:35;1.20;;;0.90;;
7971;SDS011;4031;49.758;6.120;2023-08-07T14:26:01;1.53;;;0.93;;
7971;SDS011;4031;49.758;6.120;2023-08-07T14:28:27;1.20;;;1.10;;
7971;SDS011;4031;49.758;6.120;2023-08-07T14:30:53;2.83;;;2.20;;
7971;SDS011;4031;49.758;6.120;2023-08-07T14:33:22;1.30;;;1.17;;
7971;SDS011;4031;49.758;6.120;2023-08-07T14:35:48;1.63;;;1.10;;
7971;SDS011;4031;49.758;6.120;2023-08-07T14:38:14;0.77;;;0.77;;
7971;SDS011;4031;49.758;6.120;2023-08-07T14:40:39;1.00;;;0.90;;
7971;SDS011;4031;49.758;6.120;2023-08-07T14:43:06;1.57;;;1.00;;
7971;SDS011;4031;49.758;6.120;2023-08-07T14:45:32;1.40;;;0.90;;
7971;SDS011;4031;49.758;6.120;2023-08-07T14:47:57;1.10;;;1.10;;
7971;SDS011;4031;49.758;6.120;2023-08-07T14:50:23;1.53;;;1.10;;
7971;SDS011;4031;49.758;6.120;2023-08-07T14:52:49;1.00;;;0.90;;
7971;SDS011;4031;49.758;6.120;2023-08-07T14:55:15;0.90;;;0.90;;
7971;SDS011;4031;49.758;6.120;2023-08-07T14:57:40;2.20;;;1.10;;
7971;SDS011;4031;49.758;6.120;2023-08-07T15:00:06;1.00;;;0.80;;
7971;SDS011;4031;49.758;6.120;2023-08-07T15:02:33;1.73;;;1.10;;
7971;SDS011;4031;49.758;6.120;2023-08-07T15:04:59;1.20;;;1.00;;
7971;SDS011;4031;49.758;6.120;2023-08-07T15:07:25;1.17;;;0.83;;
7971;SDS011;4031;49.758;6.120;2023-08-07T15:09:50;1.63;;;1.00;;
7971;SDS011;4031;49.758;6.120;2023-08-07T15:12:16;2.00;;;0.97;;
7971;SDS011;4031;49.758;6.120;2023-08-07T15:14:42;1.07;;;0.80;;
7971;SDS011;4031;49.758;6.120;2023-08-07T15:17:08;1.20;;;0.97;;
7971;SDS011;4031;49.758;6.120;2023-08-07T15:19:33;1.47;;;1.30;;
7971;SDS011;4031;49.758;6.120;2023-08-07T15:21:59;1.20;;;1.10;;
7971;SDS011;4031;49.758;6.120;2023-08-07T15:24:25;1.60;;;1.00;;
7971;SDS011;4031;49.758;6.120;2023-08-07T15:26:50;0.97;;;0.87;;